createdAt,value
2016-05-31T09:00:39.032Z,157.5
2016-05-31T09:00:49.032Z,303.8
2016-05-31T09:00:59.032Z,303.8
2016-05-31T09:01:08.894Z,303.8
2016-05-31T09:01:19.035Z,303.8
2016-05-31T09:01:29.019Z,298.1
2016-05-31T09:01:39.035Z,303.8
2016-05-31T09:01:49.019Z,292.5
2016-05-31T09:01:59.050Z,286.9
2016-05-31T09:02:09.037Z,286.9
2016-05-31T09:02:19.037Z,281.3
2016-05-31T09:02:29.037Z,275.6
2016-05-31T09:02:39.021Z,275.6
2016-05-31T09:02:49.021Z,270
2016-05-31T09:02:59.006Z,264.4
2016-05-31T09:03:09.009Z,264.4
2016-05-31T09:03:19.024Z,258.8
2016-05-31T09:03:28.868Z,258.8
2016-05-31T09:03:39.009Z,258.8
2016-05-31T09:03:49.024Z,253.1
2016-05-31T09:03:59.009Z,253.1
2016-05-31T09:04:09.027Z,247.5
2016-05-31T09:04:19.012Z,247.5
2016-05-31T09:04:28.871Z,241.9
2016-05-31T09:04:38.996Z,241.9
2016-05-31T09:04:49.012Z,236.3
2016-05-31T09:04:58.996Z,236.3
2016-05-31T09:05:09.014Z,230.6
2016-05-31T09:05:18.873Z,230.6
2016-05-31T09:05:28.998Z,225
2016-05-31T09:05:39.014Z,225
2016-05-31T09:05:49.014Z,219.4
2016-05-31T09:05:59.029Z,219.4
2016-05-31T09:06:09.017Z,219.4
2016-05-31T09:06:19.001Z,213.8
2016-05-31T09:06:28.985Z,213.8
2016-05-31T09:06:39.001Z,213.8
2016-05-31T09:06:49.001Z,208.1
2016-05-31T09:06:58.845Z,208.1
2016-05-31T09:07:09.004Z,208.1
2016-05-31T09:07:18.988Z,202.5
2016-05-31T09:07:29.160Z,202.5
2016-05-31T09:07:38.988Z,208.1
2016-05-31T09:07:50.270Z,202.5
2016-05-31T09:07:58.691Z,202.5
2016-05-31T09:08:10.319Z,202.5
2016-05-31T09:08:20.304Z,196.9
2016-05-31T09:08:31.460Z,191.3
2016-05-31T09:08:42.741Z,191.3
2016-05-31T09:08:54.523Z,185.6
2016-05-31T09:09:05.900Z,180
2016-05-31T09:09:16.853Z,180
2016-05-31T09:09:27.056Z,174.4
2016-05-31T09:09:37.946Z,168.8
2016-05-31T09:09:49.478Z,168.8
2016-05-31T09:09:57.712Z,163.1
2016-05-31T09:10:07.668Z,163.1
2016-05-31T09:10:17.668Z,163.1
2016-05-31T09:10:27.668Z,163.1
2016-05-31T09:10:37.668Z,163.1
2016-05-31T09:10:47.653Z,157.5
2016-05-31T09:10:57.668Z,157.5
2016-05-31T09:11:07.670Z,157.5
2016-05-31T09:11:17.655Z,157.5
2016-05-31T09:11:27.655Z,157.5
2016-05-31T09:11:37.655Z,157.5
2016-05-31T09:11:47.670Z,151.9
2016-05-31T09:11:57.655Z,151.9
2016-05-31T09:12:07.658Z,151.9
2016-05-31T09:12:17.642Z,151.9
2016-05-31T09:12:27.658Z,146.3
2016-05-31T09:12:37.658Z,146.3
2016-05-31T09:12:47.658Z,146.3
2016-05-31T09:12:57.642Z,146.3
2016-05-31T09:13:07.645Z,146.3
2016-05-31T09:13:17.629Z,146.3
2016-05-31T09:13:27.645Z,146.3
2016-05-31T09:13:37.645Z,146.3
2016-05-31T09:13:47.629Z,151.9
2016-05-31T09:13:57.645Z,151.9
2016-05-31T09:14:07.632Z,151.9
2016-05-31T09:14:17.632Z,157.5
2016-05-31T09:14:27.632Z,157.5
2016-05-31T09:14:37.476Z,157.5
2016-05-31T09:14:47.632Z,163.1
2016-05-31T09:14:57.476Z,163.1
2016-05-31T09:15:07.634Z,163.1
2016-05-31T09:15:17.634Z,163.1
2016-05-31T09:15:27.619Z,168.8
2016-05-31T09:15:37.634Z,168.8
2016-05-31T09:15:47.619Z,174.4
2016-05-31T09:15:57.322Z,174.4
2016-05-31T09:16:07.622Z,180
2016-05-31T09:16:17.622Z,180
2016-05-31T09:16:27.653Z,185.6
2016-05-31T09:16:37.637Z,185.6
2016-05-31T09:16:47.606Z,185.6
2016-05-31T09:16:57.606Z,191.3
2016-05-31T09:17:07.608Z,191.3
2016-05-31T09:17:17.452Z,191.3
2016-05-31T09:17:27.608Z,191.3
2016-05-31T09:17:37.608Z,191.3
2016-05-31T09:17:47.467Z,191.3
2016-05-31T09:17:57.608Z,185.6
2016-05-31T09:18:07.612Z,185.6
2016-05-31T09:18:17.596Z,180
2016-05-31T09:18:27.612Z,180
2016-05-31T09:18:37.612Z,180
2016-05-31T09:18:47.596Z,174.4
2016-05-31T09:18:57.628Z,174.4
2016-05-31T09:19:07.598Z,168.8
2016-05-31T09:19:17.442Z,163.1
2016-05-31T09:19:28.145Z,163.1
2016-05-31T09:19:37.817Z,163.1
2016-05-31T09:19:47.708Z,157.5
2016-05-31T09:19:57.473Z,157.5
2016-05-31T09:20:07.601Z,157.5
2016-05-31T09:20:18.101Z,146.3
2016-05-31T09:20:27.586Z,146.3
2016-05-31T09:20:37.414Z,140.6
2016-05-31T09:20:47.586Z,140.6
2016-05-31T09:20:57.586Z,135
2016-05-31T09:21:07.588Z,135
2016-05-31T09:21:17.588Z,129.4
2016-05-31T09:21:27.572Z,129.4
2016-05-31T09:21:37.572Z,123.8
2016-05-31T09:21:47.572Z,123.8
2016-05-31T09:21:57.572Z,123.8
2016-05-31T09:22:07.561Z,118.1
2016-05-31T09:22:17.576Z,118.1
2016-05-31T09:22:27.420Z,118.1
2016-05-31T09:22:37.701Z,118.1
2016-05-31T09:22:47.607Z,118.1
2016-05-31T09:22:59.576Z,118.1
2016-05-31T09:23:08.593Z,118.1
2016-05-31T09:23:19.890Z,118.1
2016-05-31T09:23:31.952Z,112.5
2016-05-31T09:23:43.577Z,112.5
2016-05-31T09:23:55.046Z,112.5
2016-05-31T09:24:06.644Z,118.1
2016-05-31T09:24:18.269Z,118.1
2016-05-31T09:24:26.644Z,118.1
2016-05-31T09:24:36.597Z,118.1
2016-05-31T09:24:46.597Z,118.1
2016-05-31T09:24:56.597Z,118.1
2016-05-31T09:25:06.646Z,118.1
2016-05-31T09:25:16.583Z,118.1
2016-05-31T09:25:26.568Z,118.1
2016-05-31T09:25:36.427Z,118.1
2016-05-31T09:25:46.568Z,118.1
2016-05-31T09:25:56.427Z,118.1
2016-05-31T09:26:06.399Z,118.1
2016-05-31T09:26:16.571Z,123.8
2016-05-31T09:26:26.571Z,123.8
2016-05-31T09:26:36.571Z,123.8
2016-05-31T09:26:46.571Z,129.4
2016-05-31T09:26:56.586Z,129.4
2016-05-31T09:27:06.557Z,129.4
2016-05-31T09:27:16.557Z,135
2016-05-31T09:27:27.401Z,135
2016-05-31T09:27:36.557Z,140.6
2016-05-31T09:27:46.541Z,140.6
2016-05-31T09:27:56.401Z,146.3
2016-05-31T09:28:06.592Z,146.3
2016-05-31T09:28:16.545Z,151.9
2016-05-31T09:28:26.389Z,157.5
2016-05-31T09:28:36.530Z,157.5
2016-05-31T09:28:46.873Z,163.1
2016-05-31T09:28:56.545Z,163.1
2016-05-31T09:29:06.547Z,168.8
2016-05-31T09:29:16.547Z,174.4
2016-05-31T09:29:26.375Z,180
2016-05-31T09:29:36.532Z,185.6
2016-05-31T09:29:46.532Z,191.3
2016-05-31T09:29:56.532Z,196.9
2016-05-31T09:30:06.535Z,196.9
2016-05-31T09:30:16.519Z,196.9
2016-05-31T09:30:26.535Z,202.5
2016-05-31T09:30:36.363Z,208.1
2016-05-31T09:30:46.519Z,213.8
2016-05-31T09:30:56.378Z,213.8
2016-05-31T09:31:06.209Z,213.8
2016-05-31T09:31:16.365Z,219.4
2016-05-31T09:31:26.521Z,219.4
2016-05-31T09:31:36.521Z,225
2016-05-31T09:31:46.505Z,225
2016-05-31T09:31:56.349Z,230.6
2016-05-31T09:32:06.353Z,230.6
2016-05-31T09:32:16.509Z,230.6
2016-05-31T09:32:26.525Z,230.6
2016-05-31T09:32:36.509Z,230.6
2016-05-31T09:32:46.509Z,230.6
2016-05-31T09:32:56.509Z,230.6
2016-05-31T09:33:06.495Z,236.3
2016-05-31T09:33:16.510Z,236.3
2016-05-31T09:33:26.495Z,241.9
2016-05-31T09:33:36.510Z,241.9
2016-05-31T09:33:46.510Z,253.1
2016-05-31T09:33:56.354Z,247.5
2016-05-31T09:34:06.483Z,253.1
2016-05-31T09:34:16.327Z,253.1
2016-05-31T09:34:26.499Z,258.8
2016-05-31T09:34:36.343Z,264.4
2016-05-31T09:34:46.483Z,270
2016-05-31T09:34:56.327Z,275.6
2016-05-31T09:35:06.485Z,275.6
2016-05-31T09:35:16.470Z,281.3
2016-05-31T09:35:26.470Z,286.9
2016-05-31T09:35:36.485Z,292.5
2016-05-31T09:35:46.470Z,298.1
2016-05-31T09:35:56.470Z,303.8
2016-05-31T09:36:06.487Z,309.4
2016-05-31T09:36:16.315Z,315
2016-05-31T09:36:26.472Z,315
2016-05-31T09:36:36.472Z,320.6
2016-05-31T09:36:46.472Z,331.9
2016-05-31T09:36:56.472Z,337.5
2016-05-31T09:37:06.460Z,331.9
2016-05-31T09:37:16.460Z,343.1
2016-05-31T09:37:26.647Z,348.8
2016-05-31T09:37:36.819Z,348.8
2016-05-31T09:37:46.772Z,360
2016-05-31T09:37:56.726Z,360
2016-05-31T09:38:06.932Z,365.6
2016-05-31T09:38:16.479Z,376.9
2016-05-31T09:38:27.041Z,382.5
2016-05-31T09:38:36.525Z,393.8
2016-05-31T09:38:46.369Z,399.4
2016-05-31T09:38:56.447Z,410.6
2016-05-31T09:39:06.449Z,421.9
2016-05-31T09:39:16.449Z,438.8
2016-05-31T09:39:26.449Z,450
2016-05-31T09:39:36.434Z,466.9
2016-05-31T09:39:46.277Z,483.8
2016-05-31T09:39:56.277Z,607.5
2016-05-31T09:40:06.437Z,618.8
2016-05-31T09:40:16.437Z,523.1
2016-05-31T09:40:26.421Z,495
2016-05-31T09:40:36.280Z,500.6
2016-05-31T09:40:46.421Z,511.9
2016-05-31T09:40:56.265Z,517.5
2016-05-31T09:41:06.423Z,534.4
2016-05-31T09:41:16.439Z,540
2016-05-31T09:41:26.423Z,556.9
2016-05-31T09:41:36.439Z,624.4
2016-05-31T09:41:46.251Z,624.4
2016-05-31T09:41:56.282Z,568.1
2016-05-31T09:42:06.410Z,562.5
2016-05-31T09:42:16.410Z,590.6
2016-05-31T09:42:26.426Z,635.6
2016-05-31T09:42:36.410Z,579.4
2016-05-31T09:42:46.426Z,562.5
2016-05-31T09:42:56.410Z,562.5
2016-05-31T09:43:06.256Z,562.5
2016-05-31T09:43:16.241Z,551.3
2016-05-31T09:43:26.397Z,551.3
2016-05-31T09:43:36.397Z,551.3
2016-05-31T09:43:46.397Z,556.9
2016-05-31T09:43:56.397Z,551.3
2016-05-31T09:44:06.400Z,590.6
2016-05-31T09:44:16.384Z,585
2016-05-31T09:44:26.384Z,596.3
2016-05-31T09:44:36.228Z,669.4
2016-05-31T09:44:46.384Z,540
2016-05-31T09:44:56.384Z,534.4
2016-05-31T09:45:06.403Z,534.4
2016-05-31T09:45:16.387Z,540
2016-05-31T09:45:26.403Z,556.9
2016-05-31T09:45:36.387Z,534.4
2016-05-31T09:45:46.387Z,534.4
2016-05-31T09:45:56.372Z,551.3
2016-05-31T09:46:06.390Z,939.4
2016-05-31T09:46:16.375Z,545.6
2016-05-31T09:46:26.218Z,528.8
2016-05-31T09:46:36.375Z,517.5
2016-05-31T09:46:46.390Z,517.5
2016-05-31T09:46:56.375Z,534.4
2016-05-31T09:47:06.377Z,517.5
2016-05-31T09:47:16.377Z,511.9
2016-05-31T09:47:26.377Z,511.9
2016-05-31T09:47:36.361Z,511.9
2016-05-31T09:47:46.361Z,517.5
2016-05-31T09:47:56.361Z,506.3
2016-05-31T09:48:06.364Z,506.3
2016-05-31T09:48:16.364Z,500.6
2016-05-31T09:48:26.380Z,506.3
2016-05-31T09:48:36.380Z,506.3
2016-05-31T09:48:46.364Z,495
2016-05-31T09:48:56.364Z,495
2016-05-31T09:49:06.383Z,495
2016-05-31T09:49:16.351Z,489.4
2016-05-31T09:49:26.367Z,489.4
2016-05-31T09:49:36.351Z,483.8
2016-05-31T09:49:46.351Z,483.8
2016-05-31T09:49:56.351Z,483.8
2016-05-31T09:50:06.370Z,478.1
2016-05-31T09:50:16.339Z,478.1
2016-05-31T09:50:26.339Z,478.1
2016-05-31T09:50:36.354Z,478.1
2016-05-31T09:50:46.198Z,478.1
2016-05-31T09:50:56.354Z,478.1
2016-05-31T09:51:06.341Z,478.1
2016-05-31T09:51:16.356Z,472.5
2016-05-31T09:51:26.341Z,472.5
2016-05-31T09:51:36.341Z,472.5
2016-05-31T09:51:46.341Z,478.1
2016-05-31T09:51:56.325Z,478.1
2016-05-31T09:52:06.344Z,478.1
2016-05-31T09:52:16.328Z,478.1
2016-05-31T09:52:26.187Z,478.1
2016-05-31T09:52:36.359Z,478.1
2016-05-31T09:52:46.344Z,478.1
2016-05-31T09:52:56.328Z,478.1
2016-05-31T09:53:06.502Z,489.4
2016-05-31T09:53:16.221Z,483.8
2016-05-31T09:53:26.189Z,489.4
2016-05-31T09:53:36.174Z,489.4
2016-05-31T09:53:46.986Z,495
2016-05-31T09:53:56.674Z,500.6
2016-05-31T09:54:06.161Z,500.6
2016-05-31T09:54:16.161Z,500.6
2016-05-31T09:54:26.317Z,506.3
2016-05-31T09:54:36.317Z,506.3
2016-05-31T09:54:46.302Z,511.9
2016-05-31T09:54:56.317Z,511.9
2016-05-31T09:55:06.305Z,511.9
2016-05-31T09:55:16.024Z,517.5
2016-05-31T09:55:26.336Z,517.5
2016-05-31T09:55:36.336Z,523.1
2016-05-31T09:55:46.305Z,523.1
2016-05-31T09:55:56.320Z,528.8
2016-05-31T09:56:06.152Z,528.8
2016-05-31T09:56:16.308Z,534.4
2016-05-31T09:56:26.152Z,534.4
2016-05-31T09:56:36.323Z,540
2016-05-31T09:56:46.152Z,534.4
2016-05-31T09:56:56.292Z,534.4
2016-05-31T09:57:05.982Z,534.4
2016-05-31T09:57:16.294Z,540
2016-05-31T09:57:26.138Z,540
2016-05-31T09:57:36.325Z,540
2016-05-31T09:57:46.279Z,545.6
2016-05-31T09:57:56.294Z,556.9
2016-05-31T09:58:06.141Z,562.5
2016-05-31T09:58:16.297Z,573.8
2016-05-31T09:58:26.297Z,579.4
2016-05-31T09:58:36.297Z,585
2016-05-31T09:58:46.297Z,590.6
2016-05-31T09:58:56.297Z,596.3
2016-05-31T09:59:06.284Z,601.9
2016-05-31T09:59:16.127Z,601.9
2016-05-31T09:59:26.127Z,607.5
2016-05-31T09:59:36.284Z,613.1
2016-05-31T09:59:46.284Z,624.4
2016-05-31T09:59:56.284Z,624.4
2016-05-31T10:00:06.288Z,618.8
2016-05-31T10:00:16.288Z,613.1
2016-05-31T10:00:26.288Z,607.5
2016-05-31T10:00:36.288Z,613.1
2016-05-31T10:00:46.272Z,624.4
2016-05-31T10:00:56.288Z,686.3
2016-05-31T10:01:06.290Z,624.4
2016-05-31T10:01:16.290Z,607.5
2016-05-31T10:01:26.274Z,601.9
2016-05-31T10:01:36.274Z,601.9
2016-05-31T10:01:46.290Z,601.9
2016-05-31T10:01:56.290Z,607.5
2016-05-31T10:02:06.136Z,607.5
2016-05-31T10:02:16.277Z,613.1
2016-05-31T10:02:26.277Z,613.1
2016-05-31T10:02:36.277Z,630
2016-05-31T10:02:46.261Z,635.6
2016-05-31T10:02:56.261Z,630
2016-05-31T10:03:06.279Z,630
2016-05-31T10:03:16.279Z,641.3
2016-05-31T10:03:26.279Z,641.3
2016-05-31T10:03:36.263Z,646.9
2016-05-31T10:03:46.279Z,646.9
2016-05-31T10:03:56.248Z,641.3
2016-05-31T10:04:06.266Z,658.1
2016-05-31T10:04:16.282Z,669.4
2016-05-31T10:04:26.266Z,669.4
2016-05-31T10:04:36.282Z,680.6
2016-05-31T10:04:46.266Z,708.8
2016-05-31T10:04:56.266Z,781.9
2016-05-31T10:05:06.315Z,793.1
2016-05-31T10:05:16.284Z,765
2016-05-31T10:05:26.284Z,765
2016-05-31T10:05:36.253Z,776.3
2016-05-31T10:05:46.268Z,866.3
2016-05-31T10:05:56.253Z,916.9
2016-05-31T10:06:06.272Z,871.9
2016-05-31T10:06:16.257Z,838.1
2016-05-31T10:06:26.257Z,815.6
2016-05-31T10:06:36.257Z,793.1
2016-05-31T10:06:46.257Z,742.5
2016-05-31T10:06:56.241Z,826.9
2016-05-31T10:07:06.259Z,916.9
2016-05-31T10:07:16.243Z,675
2016-05-31T10:07:26.243Z,759.4
2016-05-31T10:07:36.712Z,793.1
2016-05-31T10:07:46.696Z,742.5
2016-05-31T10:07:56.524Z,815.6
2016-05-31T10:08:06.637Z,798.8
2016-05-31T10:08:16.246Z,708.8
2016-05-31T10:08:26.527Z,973.1
2016-05-31T10:08:36.387Z,973.1
2016-05-31T10:08:46.121Z,534.4
2016-05-31T10:08:56.230Z,511.9
2016-05-31T10:09:06.248Z,500.6
2016-05-31T10:09:16.107Z,489.4
2016-05-31T10:09:26.232Z,495
2016-05-31T10:09:36.248Z,489.4
2016-05-31T10:09:46.248Z,483.8
2016-05-31T10:09:56.279Z,489.4
2016-05-31T10:10:06.252Z,495
2016-05-31T10:10:16.236Z,500.6
2016-05-31T10:10:26.252Z,511.9
2016-05-31T10:10:36.268Z,534.4
2016-05-31T10:10:46.096Z,585
2016-05-31T10:10:56.252Z,978.8
2016-05-31T10:11:06.254Z,1383.8
2016-05-31T10:11:16.254Z,810
2016-05-31T10:11:26.238Z,691.9
2016-05-31T10:11:36.098Z,658.1
2016-05-31T10:11:46.254Z,630
2016-05-31T10:11:56.238Z,596.3
2016-05-31T10:12:06.226Z,568.1
2016-05-31T10:12:16.241Z,556.9
2016-05-31T10:12:26.226Z,545.6
2016-05-31T10:12:36.226Z,540
2016-05-31T10:12:46.241Z,540
2016-05-31T10:12:56.226Z,523.1
2016-05-31T10:13:06.228Z,517.5
2016-05-31T10:13:16.212Z,511.9
2016-05-31T10:13:26.056Z,528.8
2016-05-31T10:13:36.228Z,489.4
2016-05-31T10:13:46.228Z,472.5
2016-05-31T10:13:56.072Z,450
2016-05-31T10:14:06.246Z,438.8
2016-05-31T10:14:16.231Z,433.1
2016-05-31T10:14:26.075Z,427.5
2016-05-31T10:14:36.231Z,421.9
2016-05-31T10:14:46.215Z,421.9
2016-05-31T10:14:56.215Z,416.3
2016-05-31T10:15:06.092Z,416.3
2016-05-31T10:15:16.217Z,410.6
2016-05-31T10:15:26.217Z,410.6
2016-05-31T10:15:36.217Z,421.9
2016-05-31T10:15:46.061Z,455.6
2016-05-31T10:15:56.233Z,517.5
2016-05-31T10:16:06.237Z,551.3
2016-05-31T10:16:16.221Z,450
2016-05-31T10:16:26.221Z,427.5
2016-05-31T10:16:36.206Z,421.9
2016-05-31T10:16:46.065Z,421.9
2016-05-31T10:16:56.221Z,421.9
2016-05-31T10:17:06.239Z,421.9
2016-05-31T10:17:16.223Z,427.5
2016-05-31T10:17:26.223Z,427.5
2016-05-31T10:17:36.208Z,433.1
2016-05-31T10:17:46.051Z,438.8
2016-05-31T10:17:56.208Z,444.4
2016-05-31T10:18:06.211Z,444.4
2016-05-31T10:18:16.211Z,450
2016-05-31T10:18:26.211Z,444.4
2016-05-31T10:18:36.226Z,450
2016-05-31T10:18:46.211Z,450
2016-05-31T10:18:56.195Z,450
2016-05-31T10:19:06.228Z,450
2016-05-31T10:19:16.197Z,450
2016-05-31T10:19:26.213Z,450
2016-05-31T10:19:36.197Z,450
2016-05-31T10:19:46.197Z,450
2016-05-31T10:19:56.041Z,450
2016-05-31T10:20:06.185Z,444.4
2016-05-31T10:20:16.045Z,444.4
2016-05-31T10:20:26.201Z,444.4
2016-05-31T10:20:36.217Z,438.8
2016-05-31T10:20:46.201Z,433.1
2016-05-31T10:20:56.185Z,433.1
2016-05-31T10:21:06.047Z,421.9
2016-05-31T10:21:16.203Z,421.9
2016-05-31T10:21:26.172Z,416.3
2016-05-31T10:21:36.203Z,410.6
2016-05-31T10:21:46.187Z,410.6
2016-05-31T10:21:56.187Z,410.6
2016-05-31T10:22:06.189Z,410.6
2016-05-31T10:22:16.189Z,405
2016-05-31T10:22:26.189Z,399.4
2016-05-31T10:22:36.033Z,393.8
2016-05-31T10:22:46.814Z,388.1
2016-05-31T10:22:56.642Z,388.1
2016-05-31T10:23:06.178Z,382.5
2016-05-31T10:23:15.896Z,376.9
2016-05-31T10:23:26.178Z,371.3
2016-05-31T10:23:36.506Z,365.6
2016-05-31T10:23:46.053Z,365.6
2016-05-31T10:23:56.037Z,365.6
2016-05-31T10:24:06.195Z,365.6
2016-05-31T10:24:16.023Z,360
2016-05-31T10:24:26.195Z,360
2016-05-31T10:24:36.195Z,354.4
2016-05-31T10:24:46.164Z,348.8
2016-05-31T10:24:56.195Z,348.8
2016-05-31T10:25:06.182Z,348.8
2016-05-31T10:25:16.182Z,343.1
2016-05-31T10:25:26.166Z,343.1
2016-05-31T10:25:36.182Z,343.1
2016-05-31T10:25:46.166Z,343.1
2016-05-31T10:25:56.166Z,343.1
2016-05-31T10:26:06.153Z,348.8
2016-05-31T10:26:16.185Z,348.8
2016-05-31T10:26:26.185Z,348.8
2016-05-31T10:26:36.185Z,354.4
2016-05-31T10:26:46.169Z,354.4
2016-05-31T10:26:56.169Z,360
2016-05-31T10:27:06.016Z,365.6
2016-05-31T10:27:16.156Z,365.6
2016-05-31T10:27:26.172Z,371.3
2016-05-31T10:27:36.172Z,371.3
2016-05-31T10:27:46.016Z,376.9
2016-05-31T10:27:56.156Z,376.9
2016-05-31T10:28:06.159Z,376.9
2016-05-31T10:28:16.175Z,376.9
2016-05-31T10:28:26.175Z,376.9
2016-05-31T10:28:36.175Z,376.9
2016-05-31T10:28:46.159Z,376.9
2016-05-31T10:28:56.144Z,382.5
2016-05-31T10:29:06.161Z,382.5
2016-05-31T10:29:16.146Z,382.5
2016-05-31T10:29:25.990Z,388.1
2016-05-31T10:29:36.161Z,388.1
2016-05-31T10:29:46.146Z,393.8
2016-05-31T10:29:56.146Z,393.8
2016-05-31T10:30:06.149Z,399.4
2016-05-31T10:30:15.993Z,399.4
2016-05-31T10:30:26.164Z,405
2016-05-31T10:30:36.149Z,410.6
2016-05-31T10:30:46.149Z,416.3
2016-05-31T10:30:55.977Z,421.9
2016-05-31T10:31:06.167Z,427.5
2016-05-31T10:31:16.167Z,427.5
2016-05-31T10:31:26.152Z,427.5
2016-05-31T10:31:36.152Z,433.1
2016-05-31T10:31:46.152Z,438.8
2016-05-31T10:31:56.136Z,444.4
2016-05-31T10:32:06.154Z,444.4
2016-05-31T10:32:16.138Z,450
2016-05-31T10:32:25.982Z,450
2016-05-31T10:32:36.138Z,450
2016-05-31T10:32:45.982Z,444.4
2016-05-31T10:32:56.154Z,444.4
2016-05-31T10:33:06.141Z,438.8
2016-05-31T10:33:16.141Z,438.8
2016-05-31T10:33:26.126Z,433.1
2016-05-31T10:33:36.141Z,433.1
2016-05-31T10:33:46.126Z,427.5
2016-05-31T10:33:56.141Z,427.5
2016-05-31T10:34:06.144Z,427.5
2016-05-31T10:34:16.129Z,427.5
2016-05-31T10:34:26.129Z,421.9
2016-05-31T10:34:36.129Z,421.9
2016-05-31T10:34:45.957Z,416.3
2016-05-31T10:34:56.144Z,410.6
2016-05-31T10:35:06.131Z,410.6
2016-05-31T10:35:16.131Z,405
2016-05-31T10:35:26.115Z,405
2016-05-31T10:35:36.115Z,405
2016-05-31T10:35:46.115Z,405
2016-05-31T10:35:56.099Z,399.4
2016-05-31T10:36:06.118Z,399.4
2016-05-31T10:36:16.118Z,399.4
2016-05-31T10:36:26.118Z,399.4
2016-05-31T10:36:35.977Z,393.8
2016-05-31T10:36:46.134Z,399.4
2016-05-31T10:36:56.165Z,399.4
2016-05-31T10:37:06.137Z,399.4
2016-05-31T10:37:16.121Z,399.4
2016-05-31T10:37:26.105Z,405
2016-05-31T10:37:36.246Z,405
2016-05-31T10:37:46.012Z,405
2016-05-31T10:37:57.058Z,405
2016-05-31T10:38:05.952Z,405
2016-05-31T10:38:16.796Z,410.6
2016-05-31T10:38:26.124Z,416.3
2016-05-31T10:38:36.811Z,416.3
2016-05-31T10:38:46.499Z,421.9
2016-05-31T10:38:56.749Z,427.5
2016-05-31T10:39:06.095Z,427.5
2016-05-31T10:39:16.095Z,433.1
2016-05-31T10:39:26.095Z,433.1
2016-05-31T10:39:36.095Z,433.1
2016-05-31T10:39:45.938Z,433.1
2016-05-31T10:39:56.095Z,433.1
2016-05-31T10:40:06.113Z,433.1
2016-05-31T10:40:16.098Z,438.8
2016-05-31T10:40:26.082Z,433.1
2016-05-31T10:40:36.082Z,438.8
2016-05-31T10:40:45.941Z,438.8
2016-05-31T10:40:56.098Z,444.4
2016-05-31T10:41:06.116Z,444.4
2016-05-31T10:41:16.101Z,444.4
2016-05-31T10:41:26.085Z,444.4
2016-05-31T10:41:36.085Z,444.4
2016-05-31T10:41:46.085Z,444.4
2016-05-31T10:41:56.085Z,444.4
2016-05-31T10:42:06.087Z,450
2016-05-31T10:42:16.087Z,450
2016-05-31T10:42:26.087Z,444.4
2016-05-31T10:42:36.071Z,444.4
2016-05-31T10:42:45.931Z,444.4
2016-05-31T10:42:56.087Z,438.8
2016-05-31T10:43:06.074Z,438.8
2016-05-31T10:43:16.074Z,433.1
2016-05-31T10:43:26.074Z,433.1
2016-05-31T10:43:36.090Z,427.5
2016-05-31T10:43:46.074Z,427.5
2016-05-31T10:43:56.074Z,421.9
2016-05-31T10:44:06.077Z,416.3
2016-05-31T10:44:16.077Z,410.6
2016-05-31T10:44:26.077Z,410.6
2016-05-31T10:44:36.077Z,405
2016-05-31T10:44:46.077Z,405
2016-05-31T10:44:56.077Z,405
2016-05-31T10:45:06.064Z,393.8
2016-05-31T10:45:16.064Z,393.8
2016-05-31T10:45:26.064Z,388.1
2016-05-31T10:45:36.064Z,388.1
2016-05-31T10:45:46.079Z,393.8
2016-05-31T10:45:56.064Z,393.8
2016-05-31T10:46:06.067Z,393.8
2016-05-31T10:46:15.895Z,393.8
2016-05-31T10:46:25.895Z,393.8
2016-05-31T10:46:36.051Z,399.4
2016-05-31T10:46:45.739Z,399.4
2016-05-31T10:46:55.911Z,410.6
2016-05-31T10:47:06.054Z,416.3
2016-05-31T10:47:16.070Z,427.5
2016-05-31T10:47:26.054Z,466.9
2016-05-31T10:47:35.914Z,472.5
2016-05-31T10:47:46.070Z,472.5
2016-05-31T10:47:56.054Z,489.4
2016-05-31T10:48:06.056Z,511.9
2016-05-31T10:48:16.041Z,506.3
2016-05-31T10:48:25.884Z,489.4
2016-05-31T10:48:36.056Z,461.3
2016-05-31T10:48:46.041Z,461.3
2016-05-31T10:48:56.072Z,461.3
2016-05-31T10:49:06.045Z,466.9
2016-05-31T10:49:16.045Z,472.5
2016-05-31T10:49:26.045Z,461.3
2016-05-31T10:49:36.045Z,466.9
2016-05-31T10:49:46.045Z,528.8
2016-05-31T10:49:55.888Z,500.6
2016-05-31T10:50:06.031Z,573.8
2016-05-31T10:50:16.047Z,556.9
2016-05-31T10:50:26.031Z,540
2016-05-31T10:50:36.078Z,517.5
2016-05-31T10:50:46.031Z,517.5
2016-05-31T10:50:55.890Z,511.9
2016-05-31T10:51:06.050Z,511.9
2016-05-31T10:51:15.878Z,534.4
2016-05-31T10:51:26.034Z,562.5
2016-05-31T10:51:36.034Z,579.4
2016-05-31T10:51:46.034Z,1001.3
2016-05-31T10:51:56.034Z,585
2016-05-31T10:52:05.880Z,551.3
2016-05-31T10:52:16.036Z,551.3
2016-05-31T10:52:25.880Z,562.5
2016-05-31T10:52:37.364Z,596.3
2016-05-31T10:52:46.458Z,618.8
2016-05-31T10:52:55.911Z,635.6
2016-05-31T10:53:06.741Z,641.3
2016-05-31T10:53:16.022Z,585
2016-05-31T10:53:26.147Z,573.8
2016-05-31T10:53:35.882Z,573.8
2016-05-31T10:53:46.975Z,573.8
2016-05-31T10:53:56.054Z,585
2016-05-31T10:54:06.042Z,641.3
2016-05-31T10:54:16.011Z,613.1
2016-05-31T10:54:25.854Z,618.8
2016-05-31T10:54:36.026Z,630
2016-05-31T10:54:46.011Z,596.3
2016-05-31T10:54:55.886Z,596.3
2016-05-31T10:55:06.013Z,635.6
2016-05-31T10:55:16.013Z,945
2016-05-31T10:55:26.013Z,731.3
2016-05-31T10:55:36.013Z,736.9
2016-05-31T10:55:46.013Z,787.5
2016-05-31T10:55:56.013Z,1462.5
2016-05-31T10:56:06.031Z,703.1
2016-05-31T10:56:16.000Z,630
2016-05-31T10:56:26.000Z,630
2016-05-31T10:56:36.000Z,658.1
2016-05-31T10:56:46.000Z,860.6
2016-05-31T10:56:56.000Z,961.9
2016-05-31T10:57:06.003Z,669.4
2016-05-31T10:57:16.003Z,607.5
2016-05-31T10:57:26.003Z,596.3
2016-05-31T10:57:36.003Z,596.3
2016-05-31T10:57:45.691Z,596.3
2016-05-31T10:57:56.019Z,596.3
2016-05-31T10:58:05.989Z,601.9
2016-05-31T10:58:15.989Z,652.5
2016-05-31T10:58:26.005Z,641.3
2016-05-31T10:58:35.833Z,630
2016-05-31T10:58:45.974Z,630
2016-05-31T10:58:55.989Z,601.9
2016-05-31T10:59:05.992Z,596.3
2016-05-31T10:59:15.992Z,624.4
2016-05-31T10:59:26.008Z,613.1
2016-05-31T10:59:35.992Z,590.6
2016-05-31T10:59:45.977Z,590.6
2016-05-31T10:59:55.977Z,596.3
2016-05-31T11:00:05.995Z,596.3
2016-05-31T11:00:15.980Z,607.5
2016-05-31T11:00:25.980Z,635.6
2016-05-31T11:00:35.839Z,658.1
2016-05-31T11:00:45.980Z,686.3
2016-05-31T11:00:55.995Z,1035
2016-05-31T11:01:05.997Z,798.8
2016-05-31T11:01:15.997Z,1198.1
2016-05-31T11:01:25.966Z,776.3
2016-05-31T11:01:35.982Z,742.5
2016-05-31T11:01:45.982Z,798.8
2016-05-31T11:01:55.966Z,725.6
2016-05-31T11:02:05.969Z,618.8
2016-05-31T11:02:15.969Z,596.3
2016-05-31T11:02:25.985Z,601.9
2016-05-31T11:02:35.969Z,607.5
2016-05-31T11:02:45.969Z,613.1
2016-05-31T11:02:55.813Z,630
2016-05-31T11:03:05.988Z,630
2016-05-31T11:03:15.972Z,652.5
2016-05-31T11:03:25.816Z,680.6
2016-05-31T11:03:35.972Z,753.8
2016-05-31T11:03:45.988Z,849.4
2016-05-31T11:03:55.957Z,759.4
2016-05-31T11:04:05.974Z,742.5
2016-05-31T11:04:15.974Z,703.1
2016-05-31T11:04:25.974Z,725.6
2016-05-31T11:04:35.974Z,669.4
2016-05-31T11:04:45.959Z,641.3
2016-05-31T11:04:55.959Z,618.8
2016-05-31T11:05:05.977Z,596.3
2016-05-31T11:05:15.962Z,585
2016-05-31T11:05:25.977Z,579.4
2016-05-31T11:05:35.805Z,585
2016-05-31T11:05:45.962Z,601.9
2016-05-31T11:05:55.962Z,607.5
2016-05-31T11:06:05.980Z,590.6
2016-05-31T11:06:15.965Z,686.3
2016-05-31T11:06:25.949Z,641.3
2016-05-31T11:06:35.980Z,579.4
2016-05-31T11:06:45.980Z,556.9
2016-05-31T11:06:55.965Z,551.3
2016-05-31T11:07:05.951Z,556.9
2016-05-31T11:07:15.967Z,579.4
2016-05-31T11:07:25.967Z,579.4
2016-05-31T11:07:36.998Z,545.6
2016-05-31T11:07:45.810Z,551.3
2016-05-31T11:07:56.326Z,562.5
2016-05-31T11:08:05.799Z,607.5
2016-05-31T11:08:15.971Z,613.1
2016-05-31T11:08:26.111Z,579.4
2016-05-31T11:08:35.986Z,562.5
2016-05-31T11:08:45.674Z,534.4
2016-05-31T11:08:55.955Z,528.8
2016-05-31T11:09:05.941Z,523.1
2016-05-31T11:09:15.785Z,517.5
2016-05-31T11:09:25.957Z,523.1
2016-05-31T11:09:35.801Z,517.5
2016-05-31T11:09:45.957Z,528.8
2016-05-31T11:09:55.973Z,534.4
2016-05-31T11:10:05.959Z,517.5
2016-05-31T11:10:15.959Z,500.6
2016-05-31T11:10:25.959Z,478.1
2016-05-31T11:10:35.959Z,466.9